createdAt,value
2018-12-11T00:00:34.788Z,96.17
2018-12-11T00:03:03.257Z,96.58
2018-12-11T00:05:31.871Z,96.65
2018-12-11T00:08:00.414Z,96.66
2018-12-11T00:10:28.946Z,97.20
2018-12-11T00:12:57.473Z,96.81
2018-12-11T00:15:26.495Z,97.12
2018-12-11T00:17:56.070Z,97.19
2018-12-11T00:20:24.573Z,96.45
2018-12-11T00:22:53.179Z,96.15
2018-12-11T00:25:22.433Z,96.75
2018-12-11T00:27:52.445Z,96.26
2018-12-11T00:30:21.512Z,96.68
2018-12-11T00:32:50.750Z,95.96
2018-12-11T00:35:20.272Z,95.90
2018-12-11T00:37:48.760Z,95.12
2018-12-11T00:40:17.393Z,95.48
2018-12-11T00:42:45.901Z,95.52
2018-12-11T00:45:14.421Z,95.58
2018-12-11T00:47:42.936Z,95.78
2018-12-11T00:50:11.501Z,96.07
2018-12-11T00:52:40.047Z,96.24
2018-12-11T00:55:09.581Z,95.65
2018-12-11T00:57:39.456Z,95.37
2018-12-11T01:00:09.253Z,95.77
2018-12-11T01:02:37.944Z,95.20
2018-12-11T01:05:06.654Z,94.54
2018-12-11T01:07:35.407Z,94.45
2018-12-11T01:10:08.132Z,94.52
2018-12-11T01:12:36.660Z,96.28
2018-12-11T01:15:06.498Z,96.23
2018-12-11T01:17:35.056Z,96.84
2018-12-11T01:20:04.647Z,97.43
2018-12-11T01:22:33.170Z,96.96
2018-12-11T01:25:02.380Z,95.91
2018-12-11T01:27:31.661Z,96.02
2018-12-11T01:30:00.165Z,96.23
2018-12-11T01:32:28.849Z,96.39
2018-12-11T01:34:57.357Z,96.63
2018-12-11T01:37:25.849Z,96.44
2018-12-11T01:39:54.991Z,95.96
2018-12-11T01:42:23.501Z,95.94
2018-12-11T01:44:52.113Z,95.76
2018-12-11T01:47:20.671Z,94.83
2018-12-11T01:49:49.513Z,94.89
2018-12-11T01:52:18.018Z,94.26
2018-12-11T01:54:46.558Z,93.50
2018-12-11T01:57:16.325Z,92.88
2018-12-11T01:59:46.102Z,92.12
2018-12-11T02:02:14.812Z,92.29
2018-12-11T02:04:43.352Z,93.36
2018-12-11T02:07:11.924Z,93.34
2018-12-11T02:09:40.509Z,93.97
2018-12-11T02:12:09.033Z,93.36
2018-12-11T02:14:37.789Z,93.63
2018-12-11T02:17:07.628Z,93.14
2018-12-11T02:19:36.199Z,93.07
2018-12-11T02:22:05.214Z,93.61
2018-12-11T02:24:33.693Z,93.77
2018-12-11T02:27:02.188Z,93.72
2018-12-11T02:29:30.771Z,93.99
2018-12-11T02:31:59.492Z,93.86
2018-12-11T02:34:28.033Z,93.21
2018-12-11T02:36:57.211Z,93.67
2018-12-11T02:39:26.004Z,94.09
2018-12-11T02:41:54.607Z,94.61
2018-12-11T02:44:23.682Z,94.34
2018-12-11T02:46:52.249Z,94.30
2018-12-11T02:49:20.813Z,94.60
2018-12-11T02:51:49.432Z,94.45
2018-12-11T02:54:17.940Z,94.95
2018-12-11T02:56:46.572Z,95.59
2018-12-11T02:59:15.097Z,96.01
2018-12-11T03:01:44.448Z,95.96
2018-12-11T03:04:12.975Z,96.03
2018-12-11T03:06:41.624Z,96.30
2018-12-11T03:09:10.122Z,96.51
2018-12-11T03:11:38.658Z,96.19
2018-12-11T03:14:07.368Z,96.33
2018-12-11T03:16:35.861Z,96.90
2018-12-11T03:19:04.450Z,96.98
2018-12-11T03:21:32.960Z,96.83
2018-12-11T03:24:01.481Z,96.46
2018-12-11T03:26:30.878Z,95.62
2018-12-11T03:28:59.407Z,95.28
2018-12-11T03:31:28.916Z,95.68
2018-12-11T03:33:57.425Z,95.35
2018-12-11T03:36:26.222Z,95.40
2018-12-11T03:38:54.915Z,95.40
2018-12-11T03:41:24.303Z,95.75
2018-12-11T03:43:53.994Z,95.84
2018-12-11T03:46:22.528Z,96.11
2018-12-11T03:48:51.842Z,96.07
2018-12-11T03:51:20.952Z,96.29
2018-12-11T03:53:50.346Z,96.38
2018-12-11T03:56:19.558Z,96.64
2018-12-11T03:58:48.248Z,97.04
2018-12-11T04:01:16.786Z,97.70
2018-12-11T04:03:45.391Z,97.62
2018-12-11T04:06:13.924Z,97.40
2018-12-11T04:08:42.421Z,97.38
2018-12-11T04:11:12.239Z,97.51
2018-12-11T04:13:41.224Z,97.46
2018-12-11T04:16:09.770Z,96.86
2018-12-11T04:18:39.439Z,96.41
2018-12-11T04:21:07.962Z,96.81
2018-12-11T04:23:37.169Z,96.61
2018-12-11T04:26:05.674Z,95.67
2018-12-11T04:28:34.321Z,95.21
2018-12-11T04:31:03.658Z,95.49
2018-12-11T04:33:32.167Z,95.24
2018-12-11T04:36:01.564Z,94.83
2018-12-11T04:38:30.318Z,95.02
2018-12-11T04:40:59.670Z,95.51
2018-12-11T04:43:28.197Z,95.61
2018-12-11T04:45:58.286Z,96.15
2018-12-11T04:48:27.046Z,95.70
2018-12-11T04:50:55.654Z,96.25
2018-12-11T04:53:24.834Z,97.09
2018-12-11T04:55:54.046Z,96.69
2018-12-11T04:58:24.131Z,96.97
2018-12-11T05:00:52.663Z,97.26
2018-12-11T05:03:21.332Z,96.99
2018-12-11T05:05:49.868Z,97.90
2018-12-11T05:08:19.206Z,98.26
2018-12-11T05:10:50.666Z,97.76
2018-12-11T05:13:19.180Z,98.28
2018-12-11T05:15:47.789Z,98.07
2018-12-11T05:18:16.356Z,98.24
2018-12-11T05:20:44.828Z,98.12
2018-12-11T05:23:14.211Z,98.08
2018-12-11T05:25:42.705Z,97.92
2018-12-11T05:28:11.918Z,97.71
2018-12-11T05:30:41.022Z,97.83
2018-12-11T05:33:10.062Z,97.19
2018-12-11T05:35:38.576Z,97.17
2018-12-11T05:38:07.140Z,97.13
2018-12-11T05:40:35.760Z,97.13
2018-12-11T05:43:04.361Z,96.61
2018-12-11T05:45:32.906Z,96.17
2018-12-11T05:48:01.414Z,96.46
2018-12-11T05:50:31.302Z,96.71
2018-12-11T05:52:59.883Z,96.99
2018-12-11T05:55:28.365Z,96.05
2018-12-11T05:57:57.025Z,96.01
2018-12-11T06:00:25.641Z,96.43
2018-12-11T06:02:54.218Z,96.26
2018-12-11T06:05:22.780Z,96.58
2018-12-11T06:07:51.301Z,96.82
2018-12-11T06:10:19.875Z,96.78
2018-12-11T06:12:48.424Z,97.05
2018-12-11T06:15:17.896Z,97.08
2018-12-11T06:17:46.477Z,96.86
2018-12-11T06:20:15.032Z,97.06
2018-12-11T06:22:44.134Z,96.72
2018-12-11T06:25:12.691Z,97.47
2018-12-11T06:27:41.181Z,97.32
2018-12-11T06:30:10.658Z,97.61
2018-12-11T06:32:39.452Z,97.55
2018-12-11T06:35:08.463Z,97.34
2018-12-11T06:37:37.113Z,97.55
2018-12-11T06:40:06.374Z,97.69
2018-12-11T06:42:35.104Z,98.06
2018-12-11T06:45:04.469Z,98.47
2018-12-11T06:47:32.996Z,98.63
2018-12-11T06:50:01.504Z,98.63
2018-12-11T06:52:30.202Z,98.67
2018-12-11T06:55:01.163Z,99.14
2018-12-11T06:57:29.709Z,98.69
2018-12-11T06:59:58.195Z,99.63
2018-12-11T07:02:26.736Z,99.49
2018-12-11T07:04:55.266Z,98.82
2018-12-11T07:07:23.785Z,98.30
2018-12-11T07:09:56.305Z,99.11
2018-12-11T07:12:24.865Z,99.00
2018-12-11T07:14:53.541Z,98.84
2018-12-11T07:17:22.048Z,99.22
2018-12-11T07:19:50.597Z,99.78
2018-12-11T07:22:19.249Z,98.80
2018-12-11T07:24:48.702Z,98.93
2018-12-11T07:27:19.164Z,98.86
2018-12-11T07:29:47.668Z,98.64
2018-12-11T07:32:16.189Z,98.61
2018-12-11T07:34:44.722Z,98.89
2018-12-11T07:37:13.982Z,98.77
2018-12-11T07:39:42.513Z,99.11
2018-12-11T07:42:11.004Z,98.76
2018-12-11T07:44:40.148Z,99.09
2018-12-11T07:47:08.846Z,98.66
2018-12-11T07:49:37.372Z,99.24
2018-12-11T07:52:05.895Z,99.99
2018-12-11T07:54:34.463Z,99.15
2018-12-11T07:57:03.588Z,99.30
2018-12-11T07:59:33.492Z,99.61
2018-12-11T08:02:02.652Z,99.34
2018-12-11T08:04:31.162Z,99.23
2018-12-11T08:06:59.840Z,99.06
2018-12-11T08:09:28.599Z,99.69
2018-12-11T08:11:57.121Z,99.85
2018-12-11T08:14:26.221Z,99.22
2018-12-11T08:16:54.785Z,99.38
2018-12-11T08:19:24.333Z,99.60
2018-12-11T08:21:52.810Z,99.53
2018-12-11T08:24:21.307Z,99.21
2018-12-11T08:26:49.831Z,99.89
2018-12-11T08:29:18.442Z,99.88
2018-12-11T08:31:46.990Z,99.86
2018-12-11T08:34:16.101Z,98.69
2018-12-11T08:36:44.849Z,98.25
2018-12-11T08:39:13.434Z,98.16
2018-12-11T08:41:41.996Z,97.62
2018-12-11T08:44:11.041Z,96.62
2018-12-11T08:46:39.641Z,96.33
2018-12-11T08:49:08.375Z,96.36
2018-12-11T08:51:36.936Z,95.84
2018-12-11T08:54:05.658Z,96.24
2018-12-11T08:56:35.066Z,95.51
2018-12-11T08:59:06.530Z,95.55
2018-12-11T09:01:35.144Z,95.00
2018-12-11T09:04:03.713Z,94.53
2018-12-11T09:06:32.254Z,95.14
2018-12-11T09:09:01.531Z,94.33
2018-12-11T09:11:30.076Z,94.55
2018-12-11T09:13:59.640Z,95.02
2018-12-11T09:16:29.084Z,94.61
2018-12-11T09:18:58.176Z,94.79
2018-12-11T09:21:27.357Z,93.72
2018-12-11T09:23:56.973Z,92.91
2018-12-11T09:26:25.592Z,92.86
2018-12-11T09:28:54.088Z,91.45
2018-12-11T09:31:22.577Z,91.26
2018-12-11T09:33:51.916Z,91.11
2018-12-11T09:36:20.424Z,91.17
2018-12-11T09:38:49.045Z,92.40
2018-12-11T09:41:18.222Z,92.70
2018-12-11T09:43:46.914Z,93.55
2018-12-11T09:46:15.409Z,93.52
2018-12-11T09:48:43.977Z,93.03
2018-12-11T09:51:17.726Z,92.24
2018-12-11T09:53:43.392Z,92.25
2018-12-11T09:56:11.956Z,91.96
2018-12-11T09:58:40.476Z,91.88
2018-12-11T10:01:08.994Z,92.21
2018-12-11T10:03:37.630Z,93.06
2018-12-11T10:06:06.177Z,93.20
2018-12-11T10:08:35.349Z,92.83
2018-12-11T10:11:03.898Z,92.79
2018-12-11T10:13:32.508Z,92.42
2018-12-11T10:16:01.085Z,92.53
2018-12-11T10:18:29.712Z,92.16
2018-12-11T10:20:58.277Z,91.29
2018-12-11T10:23:31.822Z,91.68
2018-12-11T10:25:57.550Z,91.87
2018-12-11T10:28:26.206Z,91.12
2018-12-11T10:30:54.718Z,91.26
2018-12-11T10:33:23.262Z,90.98
2018-12-11T10:35:51.862Z,91.29
2018-12-11T10:38:20.361Z,90.66
2018-12-11T10:40:48.849Z,90.63
2018-12-11T10:43:18.077Z,89.73
2018-12-11T10:45:46.597Z,90.06
2018-12-11T10:48:15.184Z,89.72
2018-12-11T10:50:43.720Z,89.67
2018-12-11T10:53:12.365Z,89.74
2018-12-11T10:55:48.291Z,89.05
2018-12-11T10:58:17.451Z,89.14
2018-12-11T11:00:50.295Z,88.14
2018-12-11T11:03:18.864Z,87.26
2018-12-11T11:05:47.477Z,86.11
2018-12-11T11:08:17.462Z,85.62
2018-12-11T11:10:45.976Z,84.49
2018-12-11T11:13:14.545Z,82.34
2018-12-11T11:15:44.417Z,82.76
2018-12-11T11:18:13.610Z,81.71
2018-12-11T11:20:42.105Z,81.81
2018-12-11T11:23:10.680Z,80.99
2018-12-11T11:25:39.302Z,80.98
2018-12-11T11:28:07.857Z,81.15
2018-12-11T11:30:37.282Z,80.16
2018-12-11T11:33:05.834Z,80.41
2018-12-11T11:35:34.346Z,78.39
2018-12-11T11:38:02.985Z,78.96
2018-12-11T11:40:31.571Z,79.86
2018-12-11T11:43:00.122Z,76.83
2018-12-11T11:45:28.623Z,77.75
2018-12-11T11:47:57.179Z,78.04
2018-12-11T11:50:26.651Z,77.84
2018-12-11T11:52:55.916Z,77.65
2018-12-11T11:55:24.430Z,76.73
2018-12-11T11:57:53.041Z,76.37
2018-12-11T12:00:21.572Z,77.31
2018-12-11T12:02:50.094Z,75.85
2018-12-11T12:05:18.685Z,75.70
2018-12-11T12:07:47.254Z,77.16
2018-12-11T12:12:55.638Z,77.12
2018-12-11T12:15:25.116Z,77.47
2018-12-11T12:17:53.742Z,77.34
2018-12-11T12:20:22.294Z,77.93
2018-12-11T12:22:50.916Z,77.76
2018-12-11T12:25:19.465Z,77.95
2018-12-11T12:27:48.104Z,77.37
2018-12-11T12:30:16.728Z,76.78
2018-12-11T12:32:45.231Z,77.07
2018-12-11T12:35:14.435Z,75.79
2018-12-11T12:37:43.161Z,77.10
2018-12-11T12:40:11.735Z,76.77
2018-12-11T12:42:40.210Z,76.37
2018-12-11T12:45:08.939Z,75.01
2018-12-11T12:47:38.265Z,75.97
2018-12-11T12:50:07.991Z,77.50
2018-12-11T12:52:36.666Z,76.72
2018-12-11T12:55:05.779Z,77.42
2018-12-11T12:57:35.408Z,77.44
2018-12-11T13:00:04.369Z,78.27
2018-12-11T13:02:32.858Z,78.26
2018-12-11T13:05:01.549Z,77.18
2018-12-11T13:07:30.034Z,77.95
2018-12-11T13:09:59.523Z,76.50
2018-12-11T13:12:28.437Z,77.11
2018-12-11T13:14:56.944Z,77.22
2018-12-11T13:17:26.269Z,76.69
2018-12-11T13:19:54.854Z,77.89
2018-12-11T13:22:23.882Z,77.71
2018-12-11T13:24:52.438Z,77.03
2018-12-11T13:27:21.053Z,76.90
2018-12-11T13:29:49.638Z,77.27
2018-12-11T13:32:18.181Z,76.23
2018-12-11T13:34:47.641Z,76.17
2018-12-11T13:37:16.293Z,76.73
2018-12-11T13:39:44.849Z,77.66
2018-12-11T13:42:13.575Z,75.88
2018-12-11T13:44:42.162Z,76.31
2018-12-11T13:47:11.111Z,75.66
2018-12-11T13:49:40.239Z,75.06
2018-12-11T13:52:09.384Z,75.37
2018-12-11T13:54:38.136Z,74.62
2018-12-11T13:57:06.787Z,75.68
2018-12-11T13:59:35.316Z,75.12
2018-12-11T14:02:03.860Z,76.06
2018-12-11T14:04:32.338Z,75.45
2018-12-11T14:07:00.838Z,75.87
2018-12-11T14:09:34.920Z,76.17
2018-12-11T14:12:04.089Z,76.40
2018-12-11T14:14:32.650Z,76.68
2018-12-11T14:17:01.354Z,77.03
2018-12-11T14:19:29.853Z,77.54
2018-12-11T14:21:58.426Z,77.45
2018-12-11T14:24:27.205Z,76.88
2018-12-11T14:26:56.284Z,76.70
2018-12-11T14:29:25.315Z,76.36
2018-12-11T14:31:54.945Z,77.33
2018-12-11T14:34:23.962Z,76.54
2018-12-11T14:36:52.597Z,78.11
2018-12-11T14:39:21.181Z,78.55
2018-12-11T14:41:49.771Z,78.75
2018-12-11T14:44:18.306Z,79.51
2018-12-11T14:46:46.826Z,80.08
2018-12-11T14:49:15.451Z,80.05
2018-12-11T14:51:43.980Z,79.53
2018-12-11T14:54:12.521Z,79.66
2018-12-11T14:56:41.210Z,79.83
2018-12-11T14:59:09.721Z,79.78
2018-12-11T15:01:38.283Z,79.93
2018-12-11T15:04:06.842Z,80.10
2018-12-11T15:06:35.646Z,80.93
2018-12-11T15:09:11.737Z,81.33
2018-12-11T15:11:40.318Z,81.67
2018-12-11T15:14:08.862Z,82.30
2018-12-11T15:16:37.721Z,82.58
2018-12-11T15:19:06.290Z,83.06
2018-12-11T15:21:34.830Z,84.05
2018-12-11T15:24:03.428Z,84.44
2018-12-11T15:26:31.902Z,84.33
2018-12-11T15:29:00.401Z,85.36
2018-12-11T15:31:29.133Z,85.64
2018-12-11T15:33:58.919Z,86.12
2018-12-11T15:36:28.054Z,86.43
2018-12-11T15:38:57.242Z,87.06
2018-12-11T15:41:25.823Z,86.82
2018-12-11T15:43:54.386Z,86.95
2018-12-11T15:46:23.897Z,86.98
2018-12-11T15:48:53.702Z,87.12
2018-12-11T15:51:22.214Z,87.26
2018-12-11T15:53:50.713Z,87.55
2018-12-11T15:56:19.517Z,87.11
2018-12-11T15:58:48.033Z,87.52
2018-12-11T16:01:16.647Z,87.67
2018-12-11T16:03:45.206Z,87.84
2018-12-11T16:06:13.776Z,88.38
2018-12-11T16:08:42.301Z,88.48
2018-12-11T16:11:10.893Z,88.19
2018-12-11T16:13:39.429Z,88.15
2018-12-11T16:16:08.260Z,87.25
2018-12-11T16:18:36.737Z,88.01
2018-12-11T16:21:05.316Z,87.78
2018-12-11T16:23:33.850Z,88.68
2018-12-11T16:26:02.989Z,87.61
2018-12-11T16:28:31.617Z,87.55
2018-12-11T16:31:00.132Z,87.42
2018-12-11T16:33:28.691Z,87.44
2018-12-11T16:35:57.904Z,87.48
2018-12-11T16:38:26.503Z,87.49
2018-12-11T16:40:55.196Z,87.21
2018-12-11T16:43:23.815Z,87.55
2018-12-11T16:45:52.370Z,87.11
2018-12-11T16:48:20.970Z,87.14
2018-12-11T16:50:50.113Z,87.61
2018-12-11T16:53:19.130Z,87.82
2018-12-11T16:55:47.762Z,88.38
2018-12-11T16:58:16.292Z,88.44
2018-12-11T17:00:44.908Z,87.24
2018-12-11T17:03:13.487Z,88.21
2018-12-11T17:05:41.987Z,87.90
2018-12-11T17:08:10.659Z,88.68
2018-12-11T17:10:39.972Z,89.45
2018-12-11T17:13:08.609Z,89.26
2018-12-11T17:15:38.250Z,89.12
2018-12-11T17:18:07.568Z,89.38
2018-12-11T17:20:36.460Z,89.47
2018-12-11T17:23:04.974Z,88.82
2018-12-11T17:25:33.499Z,89.08
2018-12-11T17:28:02.115Z,88.74
2018-12-11T17:30:30.682Z,89.34
2018-12-11T17:32:59.302Z,88.78
2018-12-11T17:35:27.843Z,88.73
2018-12-11T17:37:57.708Z,88.90
2018-12-11T17:40:26.247Z,89.12
2018-12-11T17:42:54.835Z,89.94
2018-12-11T17:45:23.482Z,90.33
2018-12-11T17:47:52.654Z,90.05
2018-12-11T17:50:21.277Z,90.14
2018-12-11T17:52:50.600Z,90.49
2018-12-11T17:55:20.021Z,90.49
2018-12-11T17:57:48.661Z,90.39
2018-12-11T18:00:17.267Z,90.74
2018-12-11T18:02:47.087Z,90.95
2018-12-11T18:05:16.513Z,90.51
2018-12-11T18:07:45.227Z,91.00
2018-12-11T18:10:14.497Z,91.26
2018-12-11T18:12:43.014Z,91.16
2018-12-11T18:15:12.555Z,91.16
2018-12-11T18:17:41.176Z,91.62
2018-12-11T18:20:10.277Z,91.52
2018-12-11T18:22:39.194Z,91.39
2018-12-11T18:25:08.516Z,91.59
2018-12-11T18:27:37.234Z,90.85
2018-12-11T18:30:07.547Z,91.55
2018-12-11T18:32:37.132Z,91.30
2018-12-11T18:35:07.751Z,92.59
2018-12-11T18:37:37.413Z,91.56
2018-12-11T18:40:08.415Z,92.14
2018-12-11T18:42:37.258Z,91.67
2018-12-11T18:45:07.023Z,92.35
2018-12-11T18:47:36.000Z,92.18
2018-12-11T18:50:05.264Z,92.50
2018-12-11T18:52:34.506Z,92.73
2018-12-11T18:55:03.217Z,92.09
2018-12-11T18:57:31.853Z,92.87
2018-12-11T19:00:00.498Z,92.30
2018-12-11T19:02:29.723Z,93.07
2018-12-11T19:04:58.908Z,93.19
2018-12-11T19:07:27.422Z,93.47
2018-12-11T19:09:56.335Z,93.64
2018-12-11T19:12:25.059Z,93.79
2018-12-11T19:14:53.789Z,93.83
2018-12-11T19:17:23.437Z,93.85
2018-12-11T19:19:52.357Z,93.69
2018-12-11T19:22:21.883Z,93.90
2018-12-11T19:24:54.050Z,93.80
2018-12-11T19:27:22.884Z,94.09
2018-12-11T19:29:51.416Z,94.01
2018-12-11T19:32:20.701Z,94.92
2018-12-11T19:34:49.316Z,94.85
2018-12-11T19:37:17.977Z,94.58
2018-12-11T19:39:46.510Z,93.82
2018-12-11T19:42:15.557Z,94.02
2018-12-11T19:44:44.174Z,92.79
2018-12-11T19:47:12.829Z,92.67
2018-12-11T19:49:42.182Z,92.63
2018-12-11T19:52:10.705Z,92.70
2018-12-11T19:54:39.662Z,91.52
2018-12-11T19:57:08.287Z,91.52
2018-12-11T19:59:36.796Z,91.14
2018-12-11T20:02:06.254Z,91.05
2018-12-11T20:04:35.024Z,90.46
2018-12-11T20:07:04.557Z,90.40
2018-12-11T20:09:33.029Z,91.57
2018-12-11T20:12:02.177Z,91.57
2018-12-11T20:14:31.389Z,91.48
2018-12-11T20:16:59.958Z,93.14
2018-12-11T20:19:29.343Z,94.34
2018-12-11T20:21:57.964Z,94.64
2018-12-11T20:24:27.340Z,93.71
2018-12-11T20:26:55.903Z,94.60
2018-12-11T20:29:24.895Z,94.00
2018-12-11T20:31:53.494Z,93.11
2018-12-11T20:34:22.685Z,92.28
2018-12-11T20:36:51.436Z,91.50
2018-12-11T20:39:20.056Z,91.21
2018-12-11T20:41:48.585Z,91.57
2018-12-11T20:44:17.341Z,92.50
2018-12-11T20:46:45.871Z,92.64
2018-12-11T20:49:14.866Z,93.45
2018-12-11T20:51:43.394Z,93.74
2018-12-11T20:54:12.037Z,93.25
2018-12-11T20:56:41.593Z,93.03
2018-12-11T20:59:10.160Z,92.91
2018-12-11T21:01:38.867Z,92.30
2018-12-11T21:04:07.385Z,93.36
2018-12-11T21:06:35.950Z,92.97
2018-12-11T21:09:07.872Z,93.58
2018-12-11T21:11:36.403Z,93.84
2018-12-11T21:14:04.889Z,93.85
2018-12-11T21:16:33.496Z,93.93
2018-12-11T21:19:02.386Z,94.05
2018-12-11T21:21:31.171Z,94.03
2018-12-11T21:23:59.951Z,94.41
2018-12-11T21:26:28.511Z,94.42
2018-12-11T21:28:57.827Z,94.46
2018-12-11T21:31:26.341Z,94.00
2018-12-11T21:33:54.936Z,93.68
2018-12-11T21:36:23.451Z,93.79
2018-12-11T21:38:51.952Z,93.95
2018-12-11T21:41:20.460Z,94.58
2018-12-11T21:43:49.792Z,94.53
2018-12-11T21:46:20.236Z,94.27
2018-12-11T21:48:48.692Z,94.50
2018-12-11T21:51:17.205Z,94.82
2018-12-11T21:53:45.732Z,93.92
2018-12-11T21:56:15.066Z,94.25
2018-12-11T21:58:43.683Z,94.28
2018-12-11T22:01:12.175Z,93.99
2018-12-11T22:03:40.944Z,94.51
2018-12-11T22:06:09.895Z,94.98
2018-12-11T22:08:38.404Z,95.36
2018-12-11T22:11:06.903Z,95.07
2018-12-11T22:13:35.392Z,95.57
2018-12-11T22:16:04.154Z,94.61
2018-12-11T22:18:32.795Z,94.60
2018-12-11T22:21:01.927Z,95.15
2018-12-11T22:23:30.473Z,94.66
2018-12-11T22:25:59.045Z,95.07
2018-12-11T22:28:28.320Z,94.42
2018-12-11T22:30:56.851Z,94.11
2018-12-11T22:33:25.388Z,94.80
2018-12-11T22:35:54.045Z,94.89
2018-12-11T22:38:22.544Z,95.20
2018-12-11T22:40:51.206Z,95.03
2018-12-11T22:43:19.720Z,93.86
2018-12-11T22:45:48.224Z,94.28
2018-12-11T22:48:16.850Z,93.80
2018-12-11T22:50:45.364Z,93.92
2018-12-11T22:53:13.827Z,94.44
2018-12-11T22:55:42.564Z,93.85
2018-12-11T22:58:11.054Z,93.49
2018-12-11T23:00:40.366Z,93.04
2018-12-11T23:03:08.870Z,92.97
2018-12-11T23:05:37.381Z,92.44
2018-12-11T23:08:06.582Z,92.11
2018-12-11T23:10:35.301Z,92.29
2018-12-11T23:13:03.798Z,91.44
2018-12-11T23:15:32.402Z,92.40
2018-12-11T23:18:00.937Z,92.54
2018-12-11T23:20:30.358Z,92.23
2018-12-11T23:22:58.828Z,92.09
2018-12-11T23:25:28.294Z,92.42
2018-12-11T23:27:57.257Z,93.14
2018-12-11T23:30:25.755Z,92.50
2018-12-11T23:32:54.307Z,92.37
2018-12-11T23:35:22.975Z,92.55
2018-12-11T23:37:51.440Z,91.97
2018-12-11T23:40:20.490Z,92.47
2018-12-11T23:42:48.992Z,91.81
2018-12-11T23:45:18.146Z,92.31
2018-12-11T23:47:46.685Z,91.74
2018-12-11T23:50:15.180Z,91.68
2018-12-11T23:52:44.992Z,93.58
2018-12-11T23:55:13.493Z,94.15
2018-12-11T23:57:42.006Z,93.37
